Time;durP1;ratioP1;P1;durP2;ratioP2;P2;SDS_P1;SDS_P2;PMS_P1;PMS_P2;Temp;Humidity;BMP_temperature;BMP_pressure;BME280_temperature;BME280_humidity;BME280_pressure;Samples;Min_cycle;Max_cycle;Signal;HPM_P1;HPM_P2
2022/10/10 00:01:59;;;;;;;4.47;2.55;;;;;;;11.76;64.22;97248.31;4919686;28;20200;-79
2022/10/10 00:04:25;;;;;;;4.85;2.72;;;;;;;11.72;64.46;97243.84;4912952;28;20360;-79
2022/10/10 00:06:50;;;;;;;3.95;2.40;;;;;;;11.70;64.06;97251.91;4944541;28;20237;-79
2022/10/10 00:09:16;;;;;;;4.28;2.58;;;;;;;11.65;64.27;97249.25;4929071;28;20212;-79
2022/10/10 00:11:41;;;;;;;5.88;2.65;;;;;;;11.53;63.86;97251.25;4913292;28;20203;-79
2022/10/10 00:14:06;;;;;;;3.22;2.28;;;;;;;11.52;64.44;97244.50;4926195;28;20195;-79
2022/10/10 00:16:32;;;;;;;3.72;2.35;;;;;;;11.53;64.12;97249.44;4946394;28;20357;-79
2022/10/10 00:19:01;;;;;;;5.07;2.22;;;;;;;11.46;63.96;97254.06;4928915;28;20219;-79
2022/10/10 00:21:26;;;;;;;4.25;2.25;;;;;;;11.53;63.95;97248.66;4929171;28;20661;-79
2022/10/10 00:23:52;;;;;;;7.07;2.40;;;;;;;11.48;63.89;97243.38;4925592;28;20268;-79
2022/10/10 00:26:17;;;;;;;3.58;2.50;;;;;;;11.42;63.73;97250.38;4945172;28;20167;-79
2022/10/10 00:28:42;;;;;;;5.32;3.00;;;;;;;11.38;64.20;97244.09;4944047;28;20361;-79
2022/10/10 00:31:08;;;;;;;5.13;2.60;;;;;;;11.32;64.07;97245.88;4944628;28;20270;-79
2022/10/10 00:33:34;;;;;;;3.05;2.33;;;;;;;11.33;63.62;97244.84;4927958;28;20170;-78
2022/10/10 00:35:59;;;;;;;3.03;2.13;;;;;;;11.37;64.17;97245.13;4944593;28;20272;-79
2022/10/10 00:38:25;;;;;;;2.42;2.05;;;;;;;11.35;63.90;97242.78;4947870;28;20187;-79
2022/10/10 00:40:53;;;;;;;3.25;2.40;;;;;;;11.31;64.37;97248.72;4933477;28;20261;-78
2022/10/10 00:43:19;;;;;;;4.68;2.28;;;;;;;11.37;63.81;97242.53;4948030;28;20284;-79
2022/10/10 00:45:46;;;;;;;4.10;2.78;;;;;;;11.28;63.96;97244.78;4931810;28;20248;-78
2022/10/10 00:48:16;;;;;;;4.10;2.20;;;;;;;11.27;64.34;97240.59;4933049;28;20704;-78
2022/10/10 00:50:51;;;;;;;4.30;2.30;;;;;;;11.18;64.53;97229.06;4950045;28;20246;-78
2022/10/10 00:53:19;;;;;;;3.87;2.60;;;;;;;11.28;64.56;97242.19;4947704;28;20169;-79
2022/10/10 00:55:45;;;;;;;5.15;2.38;;;;;;;11.32;64.02;97235.44;4948190;28;20619;-79
2022/10/10 00:58:11;;;;;;;3.72;2.58;;;;;;;11.30;64.09;97242.72;4928083;28;20176;-79
2022/10/10 01:00:36;;;;;;;3.38;2.35;;;;;;;11.33;64.05;97231.81;4929208;28;20250;-79
2022/10/10 01:03:02;;;;;;;3.80;2.47;;;;;;;11.32;64.27;97234.66;4928939;28;20125;-78
2022/10/10 01:05:28;;;;;;;4.68;2.45;;;;;;;11.25;63.60;97220.00;4944946;28;20626;-79
2022/10/10 01:07:54;;;;;;;4.57;2.40;;;;;;;11.24;64.43;97230.66;4930412;28;20093;-78
2022/10/10 01:10:21;;;;;;;4.18;2.22;;;;;;;11.21;64.36;97220.75;4908642;28;20235;-79
2022/10/10 01:13:19;;;;;;;3.35;2.40;;;;;;;11.00;64.75;97228.38;4947192;28;20242;-79
2022/10/10 01:15:53;;;;;;;4.65;2.55;;;;;;;11.08;64.29;97234.19;4926058;28;20651;-79
2022/10/10 01:18:27;;;;;;;3.45;2.53;;;;;;;11.06;64.83;97229.97;4943331;28;20297;-79
2022/10/10 01:21:02;;;;;;;4.35;2.58;;;;;;;10.99;64.11;97224.19;4946074;28;20239;-78
2022/10/10 01:23:47;;;;;;;10.32;3.03;;;;;;;11.12;63.98;97223.03;4947665;28;20658;-79
2022/10/10 01:26:54;;;;;;;4.78;2.45;;;;;;;10.84;64.49;97216.22;4949920;28;20333;-79
2022/10/10 01:29:28;;;;;;;5.43;2.85;;;;;;;10.89;64.20;97218.88;4929372;28;20191;-78
2022/10/10 01:31:56;;;;;;;4.07;2.10;;;;;;;11.01;63.44;97224.72;4947121;28;20235;-78
2022/10/10 01:34:47;;;;;;;6.68;2.30;;;;;;;10.82;64.42;97221.66;4931783;28;20338;-78
2022/10/10 01:37:21;;;;;;;3.40;2.38;;;;;;;10.86;64.08;97212.34;4927251;28;20201;-79
2022/10/10 01:40:07;;;;;;;3.92;2.50;;;;;;;10.82;64.23;97213.06;4927949;28;20121;-79
2022/10/10 01:42:41;;;;;;;3.50;2.17;;;;;;;10.90;64.33;97212.63;4946256;28;20686;-78
2022/10/10 01:45:07;;;;;;;3.33;2.83;;;;;;;11.01;64.21;97214.31;4946633;28;20169;-79
2022/10/10 01:47:32;;;;;;;3.15;2.13;;;;;;;11.04;64.25;97213.03;4948448;28;20714;-79
2022/10/10 01:50:00;;;;;;;3.70;2.30;;;;;;;10.98;64.44;97214.78;4929563;28;20645;-79
2022/10/10 01:52:48;;;;;;;2.75;2.00;;;;;;;10.82;65.04;97202.66;4926672;28;20204;-79
2022/10/10 01:55:16;;;;;;;2.85;2.00;;;;;;;10.97;64.76;97210.63;4947429;28;20658;-79
2022/10/10 01:57:58;;;;;;;3.65;2.35;;;;;;;10.85;64.99;97199.56;4949351;28;20216;-78
2022/10/10 02:00:24;;;;;;;5.22;2.47;;;;;;;11.05;64.73;97204.97;4946753;28;20263;-78
2022/10/10 02:03:30;;;;;;;3.60;2.30;;;;;;;10.82;64.95;97197.44;4930953;28;20626;-79
2022/10/10 02:06:09;;;;;;;4.28;2.25;;;;;;;10.89;64.71;97198.03;4928729;28;20174;-78
2022/10/10 02:08:44;;;;;;;4.15;2.45;;;;;;;10.92;64.20;97200.16;4929230;28;20462;-78
2022/10/10 02:11:10;;;;;;;7.88;2.90;;;;;;;11.06;64.63;97197.94;4930093;28;20321;-78
2022/10/10 02:13:49;;;;;;;3.28;2.13;;;;;;;10.93;64.67;97195.72;4947029;28;20578;-78
2022/10/10 02:16:18;;;;;;;5.28;2.20;;;;;;;11.03;64.68;97198.44;4948322;28;20237;-79
2022/10/10 02:18:44;;;;;;;3.83;2.95;;;;;;;11.10;64.82;97193.03;4931041;28;20729;-79
2022/10/10 02:21:10;;;;;;;3.92;2.65;;;;;;;11.14;64.85;97199.28;4946568;28;20196;-78
2022/10/10 02:23:36;;;;;;;4.18;2.40;;;;;;;11.17;64.92;97191.81;4951908;28;20645;-79
2022/10/10 02:26:02;;;;;;;3.55;2.70;;;;;;;11.17;65.10;97191.81;4930384;28;20184;-78
2022/10/10 02:28:44;;;;;;;4.18;2.40;;;;;;;11.15;64.72;97195.66;4929333;28;20237;-79
2022/10/10 02:31:12;;;;;;;3.75;2.58;;;;;;;11.11;64.88;97192.00;4925771;28;20529;-79
2022/10/10 02:33:43;;;;;;;5.03;2.67;;;;;;;11.04;65.02;97192.19;4923237;28;20190;-79
2022/10/10 02:36:09;;;;;;;4.43;2.58;;;;;;;11.13;65.25;97187.31;4946059;28;20195;-78
2022/10/10 02:38:35;;;;;;;3.75;2.30;;;;;;;11.18;64.83;97193.34;4945886;28;20219;-78
2022/10/10 02:41:02;;;;;;;4.35;2.35;;;;;;;11.17;64.91;97188.38;4946082;28;20512;-78
2022/10/10 02:43:30;;;;;;;3.25;2.60;;;;;;;11.11;64.52;97186.78;4913225;28;20641;-78
2022/10/10 02:45:55;;;;;;;3.67;2.78;;;;;;;11.13;64.57;97192.53;4946866;28;20197;-79
2022/10/10 02:48:21;;;;;;;4.03;2.55;;;;;;;11.14;65.32;97188.88;4946101;28;20675;-79
2022/10/10 02:50:47;;;;;;;5.00;3.08;;;;;;;11.16;65.06;97195.44;4930472;28;20326;-79
2022/10/10 02:53:12;;;;;;;4.85;2.40;;;;;;;11.17;65.22;97197.00;4945549;28;20176;-78
2022/10/10 02:55:37;;;;;;;3.83;2.58;;;;;;;11.17;64.99;97186.59;4930186;28;20098;-78
2022/10/10 02:58:04;;;;;;;5.38;3.08;;;;;;;11.20;65.15;97193.88;4928726;28;20268;-78
2022/10/10 03:00:30;;;;;;;6.13;3.00;;;;;;;11.21;64.82;97197.31;4944899;28;20293;-79
2022/10/10 03:02:55;;;;;;;4.40;2.58;;;;;;;11.20;65.04;97196.50;4945030;28;20224;-78
2022/10/10 03:05:20;;;;;;;4.65;2.30;;;;;;;11.21;64.83;97197.31;4947038;28;20203;-79
2022/10/10 03:07:46;;;;;;;4.22;2.90;;;;;;;11.23;64.88;97190.00;4929279;28;20165;-78
2022/10/10 03:10:11;;;;;;;3.58;2.83;;;;;;;11.19;64.89;97192.34;4930739;28;20284;-78
2022/10/10 03:12:36;;;;;;;3.63;2.80;;;;;;;11.20;65.14;97191.28;4913550;28;20207;-78
2022/10/10 03:15:03;;;;;;;4.78;2.50;;;;;;;11.18;65.03;97184.75;4944991;28;20296;-78
2022/10/10 03:17:29;;;;;;;4.15;2.60;;;;;;;11.15;64.82;97193.06;4928969;28;20184;-79
2022/10/10 03:19:54;;;;;;;2.65;2.40;;;;;;;11.15;65.02;97182.63;4930108;28;20290;-78
2022/10/10 03:22:19;;;;;;;4.40;2.38;;;;;;;11.15;64.94;97188.63;4942279;28;20137;-78
2022/10/10 03:24:44;;;;;;;3.55;2.53;;;;;;;11.19;64.71;97179.31;4928677;28;20115;-78
2022/10/10 03:27:10;;;;;;;3.95;2.60;;;;;;;11.16;64.58;97179.78;4945215;28;20250;-79
2022/10/10 03:29:35;;;;;;;2.78;2.17;;;;;;;11.16;64.70;97185.00;4944656;28;20203;-78
2022/10/10 03:32:01;;;;;;;6.03;2.50;;;;;;;11.11;64.77;97187.56;4913358;28;20710;-79
2022/10/10 03:34:26;;;;;;;3.00;2.25;;;;;;;11.11;64.12;97192.00;4925672;28;20204;-78
2022/10/10 03:36:51;;;;;;;3.15;2.17;;;;;;;11.05;64.06;97185.94;4945684;28;20173;-79
2022/10/10 03:39:17;;;;;;;2.45;1.83;;;;;;;10.99;63.68;97187.72;4945320;28;20191;-78
2022/10/10 03:41:42;;;;;;;4.60;2.65;;;;;;;10.94;63.55;97192.88;4944859;28;20587;-78
2022/10/10 03:44:07;;;;;;;4.82;2.17;;;;;;;10.87;63.24;97190.47;4945163;28;20208;-78
2022/10/10 03:46:33;;;;;;;4.13;2.10;;;;;;;10.81;63.52;97193.25;4945232;28;20474;-78
2022/10/10 03:48:58;;;;;;;2.92;2.10;;;;;;;10.74;63.69;97193.44;4927642;28;20219;-78
2022/10/10 03:51:23;;;;;;;3.30;2.08;;;;;;;10.74;63.90;97190.06;4928644;28;20264;-78
2022/10/10 03:53:49;;;;;;;2.95;1.80;;;;;;;10.79;63.65;97190.91;4945634;28;20219;-78
2022/10/10 03:56:14;;;;;;;4.30;2.03;;;;;;;10.82;63.45;97194.84;4912452;28;20614;-78
2022/10/10 03:58:39;;;;;;;4.90;2.05;;;;;;;10.82;63.80;97198.22;4926648;28;20394;-78
2022/10/10 04:01:05;;;;;;;3.72;2.15;;;;;;;10.87;63.87;97185.25;4944720;28;20649;-78
2022/10/10 04:03:31;;;;;;;3.97;2.28;;;;;;;10.90;63.68;97188.38;4928763;28;20679;-78
2022/10/10 04:05:56;;;;;;;3.42;2.28;;;;;;;10.95;63.81;97188.44;4945339;28;20183;-78
2022/10/10 04:08:22;;;;;;;5.70;2.58;;;;;;;10.97;64.20;97189.78;4945615;28;20191;-78
2022/10/10 04:10:52;;;;;;;3.63;2.67;;;;;;;10.97;64.73;97184.56;4946046;28;20215;-78
2022/10/10 04:13:18;;;;;;;4.30;2.80;;;;;;;11.16;65.14;97194.66;4931980;28;20259;-78
2022/10/10 04:15:43;;;;;;;4.90;2.83;;;;;;;11.21;65.45;97189.47;4948402;28;20384;-78
2022/10/10 04:18:09;;;;;;;6.32;2.88;;;;;;;11.32;65.04;97190.34;4930231;28;20272;-78
2022/10/10 04:20:34;;;;;;;5.97;3.10;;;;;;;11.39;65.31;97193.53;4931994;28;20129;-78
2022/10/10 04:23:00;;;;;;;5.63;3.28;;;;;;;11.38;65.73;97194.56;4949685;28;20382;-78
2022/10/10 04:25:25;;;;;;;6.90;3.95;;;;;;;11.47;65.14;97200.13;4949664;28;20648;-78
2022/10/10 04:27:51;;;;;;;7.65;3.67;;;;;;;11.47;64.28;97200.13;4948537;28;20305;-78
2022/10/10 04:30:16;;;;;;;5.32;2.92;;;;;;;11.42;63.54;97199.03;4937457;28;20615;-78
2022/10/10 04:32:42;;;;;;;4.50;2.97;;;;;;;11.29;63.58;97196.81;4932623;28;20282;-78
2022/10/10 04:35:07;;;;;;;4.88;2.65;;;;;;;11.21;63.52;97199.91;4949258;28;20653;-78
2022/10/10 04:37:33;;;;;;;3.78;2.50;;;;;;;11.10;64.10;97195.63;4933151;28;20613;-78
2022/10/10 04:39:58;;;;;;;5.05;2.92;;;;;;;11.00;64.25;97198.91;4931577;28;20164;-78
2022/10/10 04:42:24;;;;;;;3.88;2.90;;;;;;;11.05;63.79;97199.78;4950154;28;20215;-78
2022/10/10 04:44:49;;;;;;;4.53;3.33;;;;;;;11.10;63.84;97195.63;4947063;28;20180;-78
2022/10/10 04:47:15;;;;;;;5.85;3.40;;;;;;;11.08;63.47;97198.47;4931907;28;20102;-78
2022/10/10 04:49:41;;;;;;;4.85;2.90;;;;;;;11.05;63.79;97196.34;4926808;28;20220;-78
2022/10/10 04:52:07;;;;;;;3.88;2.28;;;;;;;11.01;63.61;97198.66;4947609;28;20172;-78
2022/10/10 04:54:33;;;;;;;3.55;2.47;;;;;;;10.98;63.51;97199.16;4931198;28;20199;-78
2022/10/10 04:56:58;;;;;;;4.75;3.05;;;;;;;10.93;63.78;97199.09;4953525;28;20067;-78
2022/10/10 04:59:24;;;;;;;4.85;2.45;;;;;;;10.96;63.97;97201.22;4931669;28;20248;-78
2022/10/10 05:01:49;;;;;;;4.10;2.50;;;;;;;10.97;64.42;97196.81;4947768;28;20187;-78
2022/10/10 05:04:15;;;;;;;5.30;2.80;;;;;;;11.00;64.73;97201.53;4946270;28;20564;-78
2022/10/10 05:06:40;;;;;;;4.25;2.90;;;;;;;11.14;64.93;97201.91;4930126;28;20212;-78
2022/10/10 05:09:06;;;;;;;6.28;2.95;;;;;;;11.35;65.80;97195.84;4930539;28;20194;-78
2022/10/10 05:11:31;;;;;;;3.75;2.72;;;;;;;11.53;66.01;97194.69;4948620;28;20207;-78
2022/10/10 05:13:56;;;;;;;3.80;2.95;;;;;;;11.66;65.66;97198.69;4920477;28;20348;-78
2022/10/10 05:16:22;;;;;;;5.18;3.28;;;;;;;11.77;65.76;97192.50;4922248;28;20286;-78
2022/10/10 05:18:47;;;;;;;4.93;2.78;;;;;;;11.81;65.92;97190.97;4931228;28;20365;-78
2022/10/10 05:21:12;;;;;;;4.93;3.10;;;;;;;11.87;66.20;97189.16;4948016;28;20578;-78
2022/10/10 05:23:40;;;;;;;4.75;2.72;;;;;;;12.06;66.19;97194.00;4926783;28;20193;-78
2022/10/10 05:26:05;;;;;;;4.22;3.05;;;;;;;12.14;67.17;97185.69;4914806;28;20390;-78
2022/10/10 05:28:33;;;;;;;6.25;4.03;;;;;;;12.36;69.63;97195.97;4930125;28;20345;-78
2022/10/10 05:30:59;;;;;;;8.73;4.63;;;;;;;12.66;69.41;97189.28;4947076;28;20719;-79
2022/10/10 05:33:24;;;;;;;7.70;4.03;;;;;;;12.84;68.29;97191.44;4946076;28;20184;-79
2022/10/10 05:35:50;;;;;;;8.50;5.13;;;;;;;12.97;67.61;97192.78;4946340;28;20216;-79
2022/10/10 05:38:15;;;;;;;5.88;3.83;;;;;;;13.02;67.30;97194.59;4945762;28;20640;-79
2022/10/10 05:40:41;;;;;;;7.05;4.00;;;;;;;13.02;67.51;97186.75;4914852;28;20165;-79
2022/10/10 05:43:07;;;;;;;6.65;3.75;;;;;;;13.02;66.97;97195.41;4948057;28;20699;-78
2022/10/10 05:45:32;;;;;;;4.72;3.30;;;;;;;13.02;67.21;97194.59;4947181;28;20278;-79
2022/10/10 05:47:57;;;;;;;5.07;3.13;;;;;;;13.03;66.97;97188.34;4931176;28;20242;-79
2022/10/10 05:50:29;;;;;;;3.47;2.50;;;;;;;12.89;67.14;97194.06;4930302;28;20295;-79
2022/10/10 05:52:54;;;;;;;5.32;3.65;;;;;;;13.07;67.03;97194.59;4926242;28;20310;-79
2022/10/10 05:55:19;;;;;;;6.60;4.05;;;;;;;13.12;66.60;97197.22;4948502;28;20188;-79
2022/10/10 05:57:45;;;;;;;6.40;3.00;;;;;;;13.13;66.87;97198.03;4945379;28;20260;-79
2022/10/10 06:00:11;;;;;;;4.13;3.17;;;;;;;13.16;66.56;97192.25;4930878;28;20283;-79
2022/10/10 06:02:36;;;;;;;5.68;3.75;;;;;;;13.12;66.52;97197.22;4930442;28;20202;-79
2022/10/10 06:05:01;;;;;;;4.32;2.58;;;;;;;13.12;66.73;97202.44;4929502;28;20282;-79
2022/10/10 06:07:27;;;;;;;4.00;3.10;;;;;;;13.16;66.51;97202.72;4928135;28;20220;-79
2022/10/10 06:09:52;;;;;;;5.65;3.17;;;;;;;13.20;66.65;97203.78;4945836;28;20184;-79
2022/10/10 06:12:17;;;;;;;5.20;3.88;;;;;;;13.20;66.89;97204.56;4931644;28;20211;-79
2022/10/10 06:14:43;;;;;;;4.95;3.40;;;;;;;13.29;67.00;97213.44;4931637;28;20594;-79
2022/10/10 06:17:08;;;;;;;6.43;3.28;;;;;;;13.35;64.86;97210.84;4942519;28;20313;-79
2022/10/10 06:19:34;;;;;;;5.95;3.67;;;;;;;13.41;66.34;97220.28;4947387;28;20086;-79
2022/10/10 06:21:59;;;;;;;6.00;3.80;;;;;;;13.39;66.24;97217.94;4915080;28;20217;-79
2022/10/10 06:24:24;;;;;;;6.32;3.38;;;;;;;13.43;66.40;97226.03;4947580;28;20593;-78
2022/10/10 06:26:50;;;;;;;4.72;3.08;;;;;;;13.46;66.70;97217.69;4947651;28;20238;-79
2022/10/10 06:29:15;;;;;;;4.80;3.42;;;;;;;13.50;66.95;97226.56;4945261;28;20173;-79
2022/10/10 06:31:40;;;;;;;3.78;3.30;;;;;;;13.53;66.31;97226.03;4943820;28;20355;-79
2022/10/10 06:34:06;;;;;;;7.82;3.80;;;;;;;13.59;66.69;97225.00;4963658;28;20613;-79
2022/10/10 06:36:32;;;;;;;7.18;4.22;;;;;;;13.63;67.39;97228.66;4914551;28;20273;-79
2022/10/10 06:38:57;;;;;;;6.22;4.05;;;;;;;13.66;67.11;97222.91;4945614;28;20337;-79
2022/10/10 06:41:23;;;;;;;4.72;3.95;;;;;;;13.75;67.52;97235.47;4921619;28;20080;-79
2022/10/10 06:43:50;;;;;;;5.80;3.92;;;;;;;13.81;67.42;97237.00;4946228;28;20200;-79
2022/10/10 06:46:16;;;;;;;7.68;4.15;;;;;;;13.91;68.21;97233.59;4945779;28;20293;-79
2022/10/10 06:48:41;;;;;;;5.40;4.03;;;;;;;13.99;68.14;97239.09;4946069;28;20376;-79
2022/10/10 06:51:10;;;;;;;5.53;4.00;;;;;;;14.04;66.82;97239.09;4929778;28;20195;-80
2022/10/10 06:53:35;;;;;;;7.20;4.15;;;;;;;14.20;68.09;97245.06;4913706;28;20642;-79
2022/10/10 06:56:01;;;;;;;7.05;4.50;;;;;;;14.29;68.33;97247.94;4946829;28;20246;-79
2022/10/10 06:58:27;;;;;;;5.97;4.30;;;;;;;14.38;68.52;97248.97;4921618;28;20166;-78
2022/10/10 07:00:58;;;;;;;6.05;4.63;;;;;;;14.34;68.28;97253.19;4944997;28;20637;-79
2022/10/10 07:03:25;;;;;;;6.70;3.97;;;;;;;14.57;68.34;97257.00;4913957;28;20654;-79
2022/10/10 07:05:52;;;;;;;7.10;4.72;;;;;;;14.67;68.20;97261.47;4950922;28;20187;-79
2022/10/10 07:08:18;;;;;;;8.13;4.88;;;;;;;14.84;68.79;97255.09;4947627;28;20126;-79
2022/10/10 07:10:43;;;;;;;5.43;4.30;;;;;;;15.01;68.85;97255.56;4930425;28;20183;-79
2022/10/10 07:13:08;;;;;;;6.60;4.78;;;;;;;15.14;68.67;97256.78;4931827;28;20712;-79
2022/10/10 07:15:34;;;;;;;6.85;4.40;;;;;;;15.30;68.50;97266.13;4931502;28;20651;-79
2022/10/10 07:17:59;;;;;;;10.63;5.57;;;;;;;15.29;69.70;97267.19;4953985;28;20273;-78
2022/10/10 07:20:26;;;;;;;7.85;5.07;;;;;;;15.51;69.53;97258.13;4930366;28;20278;-79
2022/10/10 07:22:51;;;;;;;9.07;5.55;;;;;;;15.62;68.89;97266.69;4944785;28;20201;-79
2022/10/10 07:25:17;;;;;;;10.52;6.97;;;;;;;15.71;68.80;97267.66;4925242;28;20637;-79
2022/10/10 07:27:43;;;;;;;7.53;4.85;;;;;;;15.82;68.19;97268.41;4925824;28;20132;-77
2022/10/10 07:30:08;;;;;;;10.15;5.13;;;;;;;15.87;67.30;97271.78;4925522;28;20203;-79
2022/10/10 07:32:34;;;;;;;9.27;5.35;;;;;;;15.97;68.18;97267.47;4928409;28;20215;-78
2022/10/10 07:34:59;;;;;;;10.85;5.82;;;;;;;16.09;68.07;97275.75;4943760;28;20549;-78
2022/10/10 07:37:25;;;;;;;8.57;5.00;;;;;;;16.04;66.97;97281.06;4929886;28;20260;-78
2022/10/10 07:39:53;;;;;;;8.27;5.35;;;;;;;16.06;67.72;97289.47;4929779;28;20289;-78
2022/10/10 07:42:19;;;;;;;7.32;4.68;;;;;;;16.18;66.71;97276.75;4946024;28;20224;-78
2022/10/10 07:44:44;;;;;;;8.40;5.05;;;;;;;16.34;67.87;97285.25;4939448;28;20284;-78
2022/10/10 07:47:10;;;;;;;14.00;5.43;;;;;;;16.42;67.22;97282.00;4908893;28;20359;-79
2022/10/10 07:49:35;;;;;;;9.43;4.88;;;;;;;16.56;66.98;97282.13;4928380;28;20689;-78
2022/10/10 07:52:01;;;;;;;6.32;4.32;;;;;;;16.64;66.93;97280.75;4946849;28;20662;-79
2022/10/10 07:54:26;;;;;;;8.88;4.70;;;;;;;16.71;66.47;97293.50;4944407;28;20195;-78
2022/10/10 07:56:52;;;;;;;6.82;4.25;;;;;;;16.77;66.76;97287.16;4910832;28;20793;-78
2022/10/10 07:59:17;;;;;;;9.02;4.45;;;;;;;16.79;65.31;97291.06;4947018;28;20649;-79
2022/10/10 08:01:42;;;;;;;6.40;4.80;;;;;;;16.87;66.67;97284.44;4944685;28;20295;-79
2022/10/10 08:04:08;;;;;;;9.48;4.50;;;;;;;16.91;66.73;97290.69;4930663;28;20179;-79
2022/10/10 08:06:33;;;;;;;8.25;4.90;;;;;;;17.04;66.16;97303.13;4948404;28;20721;-78
2022/10/10 08:08:58;;;;;;;8.23;5.00;;;;;;;17.08;66.79;97298.09;4929396;28;20295;-78
2022/10/10 08:11:24;;;;;;;7.35;4.60;;;;;;;17.21;66.40;97301.88;4946455;28;20243;-79
2022/10/10 08:13:49;;;;;;;8.20;4.88;;;;;;;17.27;65.66;97294.69;4930090;28;20165;-79
2022/10/10 08:16:15;;;;;;;7.85;5.28;;;;;;;17.24;65.65;97301.31;4931001;28;20191;-79
2022/10/10 08:18:40;;;;;;;9.90;4.60;;;;;;;17.29;65.79;97310.97;4913631;28;20274;-79
2022/10/10 08:21:08;;;;;;;7.30;5.07;;;;;;;17.18;66.31;97302.44;4944787;28;20208;-79
2022/10/10 08:23:34;;;;;;;10.90;5.93;;;;;;;17.37;66.33;97299.81;4928321;28;20256;-78
2022/10/10 08:26:01;;;;;;;9.85;5.47;;;;;;;17.36;66.21;97309.56;4928684;28;20651;-78
2022/10/10 08:28:27;;;;;;;9.07;5.72;;;;;;;17.39;66.66;97311.63;4922986;28;20292;-78
2022/10/10 08:30:53;;;;;;;10.63;5.93;;;;;;;17.23;66.27;97308.41;4928480;28;20578;-79
2022/10/10 08:33:18;;;;;;;9.70;6.45;;;;;;;17.20;66.79;97302.94;4944410;28;20412;-79
2022/10/10 08:35:44;;;;;;;10.18;5.88;;;;;;;17.44;66.25;97296.81;4929900;28;20645;-79
2022/10/10 08:38:09;;;;;;;12.32;7.05;;;;;;;17.54;66.42;97299.31;4943449;28;20716;-78
2022/10/10 08:40:47;;;;;;;8.18;5.65;;;;;;;17.23;66.59;97310.28;4944961;28;20581;-79
2022/10/10 08:43:34;;;;;;;10.02;6.80;;;;;;;17.27;66.35;97298.09;4916571;28;20280;-78
2022/10/10 08:46:14;;;;;;;10.18;6.25;;;;;;;17.44;64.72;97310.00;4945895;28;20294;-79
2022/10/10 08:48:40;;;;;;;10.32;6.80;;;;;;;17.46;66.21;97302.59;4945995;28;20301;-79
2022/10/10 08:51:08;;;;;;;11.10;6.90;;;;;;;17.46;65.99;97303.38;4946382;28;20259;-78
2022/10/10 08:53:39;;;;;;;10.18;6.70;;;;;;;17.40;66.63;97305.28;4913083;28;20034;-80
2022/10/10 08:56:06;;;;;;;7.97;5.80;;;;;;;17.83;65.77;97299.13;4945230;28;20676;-78
2022/10/10 08:58:36;;;;;;;9.77;6.18;;;;;;;17.69;65.67;97301.72;4945834;28;20654;-79
2022/10/10 09:01:23;;;;;;;9.05;6.05;;;;;;;17.67;66.08;97303.09;4932681;28;20236;-79
2022/10/10 09:03:51;;;;;;;8.50;6.32;;;;;;;18.07;64.77;97301.66;4932999;28;20208;-79
2022/10/10 09:06:54;;;;;;;10.68;6.45;;;;;;;17.96;64.92;97301.06;4949486;28;20238;-79
2022/10/10 09:09:41;;;;;;;8.68;6.07;;;;;;;18.05;64.26;97297.75;4928421;28;20748;-78
2022/10/10 09:12:28;;;;;;;7.97;5.70;;;;;;;17.98;65.76;97292.88;4949800;28;20571;-79
2022/10/10 09:15:11;;;;;;;8.45;5.63;;;;;;;18.31;64.34;97290.19;4933217;28;20196;-79
2022/10/10 09:17:41;;;;;;;7.10;5.50;;;;;;;18.58;63.87;97286.78;4948765;28;20704;-79
2022/10/10 09:20:26;;;;;;;7.55;5.22;;;;;;;18.67;63.73;97290.28;4949623;28;20674;-80
2022/10/10 09:23:09;;;;;;;6.13;4.75;;;;;;;18.98;62.95;97286.28;4932045;28;20319;-80
2022/10/10 09:25:42;;;;;;;6.38;4.38;;;;;;;18.94;62.46;97293.25;4945877;28;20207;-79
2022/10/10 09:28:11;;;;;;;9.63;4.15;;;;;;;19.22;62.96;97294.72;4949115;28;20243;-79
2022/10/10 09:30:42;;;;;;;7.32;4.63;;;;;;;19.23;61.07;97296.31;4949369;28;20181;-79
2022/10/10 09:33:32;;;;;;;8.52;4.75;;;;;;;19.32;62.02;97290.31;4931334;28;20319;-79
2022/10/10 09:36:02;;;;;;;5.93;3.85;;;;;;;19.52;61.53;97283.78;4932151;28;20283;-78
2022/10/10 09:38:43;;;;;;;5.75;4.30;;;;;;;19.65;60.23;97289.03;4933000;28;20300;-80
2022/10/10 09:41:41;;;;;;;6.18;4.32;;;;;;;19.81;60.04;97294.75;4926223;28;20199;-79
2022/10/10 09:44:10;;;;;;;7.32;4.13;;;;;;;20.15;59.83;97287.31;4953904;28;20649;-78
2022/10/10 09:46:36;;;;;;;5.63;4.00;;;;;;;20.53;58.01;97295.56;4912807;28;20312;-78
2022/10/10 09:49:01;;;;;;;8.70;4.90;;;;;;;20.74;57.30;97290.53;4914636;28;20529;-78
2022/10/10 09:51:28;;;;;;;4.38;3.85;;;;;;;20.82;58.07;97291.66;4915208;28;20192;-78
2022/10/10 09:53:53;;;;;;;4.30;3.40;;;;;;;20.98;57.92;97294.63;4946841;28;20200;-78
2022/10/10 09:56:22;;;;;;;6.95;3.60;;;;;;;21.12;56.98;97297.91;4947532;28;20195;-78
2022/10/10 09:58:49;;;;;;;4.78;3.35;;;;;;;21.38;55.47;97301.66;4930314;28;20590;-78
2022/10/10 10:01:16;;;;;;;4.80;2.95;;;;;;;21.25;56.21;97300.72;4947136;28;20716;-78
2022/10/10 10:03:43;;;;;;;4.38;3.20;;;;;;;21.50;55.80;97299.19;4947240;28;20627;-77
2022/10/10 10:06:13;;;;;;;6.78;3.35;;;;;;;21.47;55.35;97299.81;4923317;28;20282;-77
2022/10/10 10:08:40;;;;;;;6.00;3.30;;;;;;;21.79;54.08;97295.91;4931067;28;20221;-78
2022/10/10 10:11:22;;;;;;;4.15;3.22;;;;;;;21.42;56.14;97292.78;4914397;28;20299;-78
2022/10/10 10:13:52;;;;;;;4.05;3.33;;;;;;;21.79;54.50;97301.19;4946253;28;20204;-78
2022/10/10 10:16:18;;;;;;;4.57;3.20;;;;;;;22.05;53.54;97297.72;4914555;28;20472;-77
2022/10/10 10:18:44;;;;;;;6.50;3.90;;;;;;;22.00;53.84;97292.59;4946520;28;20169;-77
2022/10/10 10:21:22;;;;;;;9.20;3.55;;;;;;;21.67;54.88;97303.72;4930898;28;20207;-77
2022/10/10 10:23:50;;;;;;;6.20;4.05;;;;;;;21.87;54.26;97313.66;4946626;28;20270;-77
2022/10/10 10:26:18;;;;;;;5.55;3.15;;;;;;;21.98;54.32;97306.16;4930544;28;20515;-78
2022/10/10 10:28:44;;;;;;;6.43;3.70;;;;;;;22.10;53.09;97318.00;4930054;28;20373;-77
2022/10/10 10:31:23;;;;;;;5.50;3.33;;;;;;;21.93;53.79;97316.91;4946336;28;20187;-77
2022/10/10 10:34:02;;;;;;;5.22;3.60;;;;;;;22.06;53.26;97325.81;4929963;28;20296;-77
2022/10/10 10:36:30;;;;;;;5.47;3.28;;;;;;;22.23;53.21;97320.44;4929290;28;20274;-78
2022/10/10 10:39:11;;;;;;;4.63;3.00;;;;;;;22.34;52.56;97326.22;4930259;28;20232;-78
2022/10/10 10:41:45;;;;;;;6.28;3.45;;;;;;;22.07;53.28;97322.03;4946138;28;20667;-78
2022/10/10 10:44:19;;;;;;;7.05;3.30;;;;;;;22.26;52.53;97325.13;4945946;28;20764;-77
2022/10/10 10:47:01;;;;;;;4.23;2.80;;;;;;;22.31;51.18;97323.41;4910324;28;20219;-76
2022/10/10 10:49:32;;;;;;;5.85;2.75;;;;;;;22.39;51.20;97322.63;4927034;28;20648;-77
2022/10/10 10:52:23;;;;;;;5.25;3.08;;;;;;;22.47;51.86;97329.78;4945924;28;20157;-77
2022/10/10 10:55:14;;;;;;;4.72;3.22;;;;;;;22.41;51.76;97328.38;4929638;28;20285;-77
2022/10/10 10:58:25;;;;;;;11.50;3.72;;;;;;;22.43;50.40;97328.81;4911012;28;20255;-76
2022/10/10 11:01:00;;;;;;;7.90;3.25;;;;;;;22.60;49.55;97328.00;4946217;28;20211;-77
2022/10/10 11:03:32;;;;;;;7.40;3.40;;;;;;;23.12;48.82;97321.66;4944734;28;20578;-77
2022/10/10 11:06:22;;;;;;;4.88;2.60;;;;;;;23.15;48.84;97327.09;4930111;28;20708;-78
2022/10/10 11:09:04;;;;;;;7.72;3.05;;;;;;;23.31;48.08;97329.97;4946001;28;20278;-77
2022/10/10 11:11:38;;;;;;;8.63;3.20;;;;;;;23.51;48.73;97323.09;4915280;28;20215;-79
2022/10/10 11:14:42;;;;;;;5.30;3.72;;;;;;;23.52;47.17;97318.56;4946172;28;20191;-77
2022/10/10 11:17:19;;;;;;;4.72;3.08;;;;;;;24.00;46.71;97314.53;4913260;28;20191;-77
2022/10/10 11:19:58;;;;;;;5.63;3.13;;;;;;;24.47;44.81;97316.06;4923111;28;20288;-77
2022/10/10 11:22:41;;;;;;;6.13;2.70;;;;;;;24.55;44.74;97309.88;4928472;28;20661;-78
2022/10/10 11:25:15;;;;;;;6.10;2.47;;;;;;;25.68;42.75;97314.69;4945885;28;20582;-78
2022/10/10 11:27:47;;;;;;;5.47;2.38;;;;;;;26.25;40.93;97310.88;4947711;28;20427;-79
2022/10/10 11:30:24;;;;;;;6.50;2.53;;;;;;;26.72;39.88;97309.31;4929911;28;20638;-78
2022/10/10 11:33:05;;;;;;;6.72;2.65;;;;;;;26.81;39.89;97309.13;4945702;28;20168;-78
2022/10/10 11:35:45;;;;;;;5.75;2.50;;;;;;;27.17;37.59;97312.56;4929805;28;20638;-78
2022/10/10 11:38:21;;;;;;;9.32;3.10;;;;;;;27.54;36.99;97307.63;4945816;28;20654;-78
2022/10/10 11:41:11;;;;;;;6.85;2.63;;;;;;;27.86;37.14;97312.03;4947151;28;20239;-78
2022/10/10 11:43:44;;;;;;;6.05;2.20;;;;;;;28.56;33.91;97303.69;4929111;28;20113;-78
2022/10/10 11:46:33;;;;;;;6.80;2.67;;;;;;;28.17;35.10;97311.84;4941719;28;20203;-78